sensor_id;sensor_type;location;lat;lon;timestamp;pressure;altitude;pressure_sealevel;temperature;humidity
18145;BME280;14857;41.200;-8.326;2022-10-17T00:01:15;99989.16;;;17.19;100.00
18145;BME280;14857;41.200;-8.326;2022-10-17T00:03:44;99992.41;;;17.31;100.00
18145;BME280;14857;41.200;-8.326;2022-10-17T00:06:14;99989.47;;;17.16;100.00
18145;BME280;14857;41.200;-8.326;2022-10-17T00:08:43;99994.59;;;17.00;100.00
18145;BME280;14857;41.200;-8.326;2022-10-17T00:11:14;99984.03;;;17.00;100.00
18145;BME280;14857;41.200;-8.326;2022-10-17T00:13:43;99977.56;;;17.12;100.00
18145;BME280;14857;41.200;-8.326;2022-10-17T00:16:12;99972.41;;;17.28;100.00
18145;BME280;14857;41.200;-8.326;2022-10-17T00:18:42;99979.41;;;17.20;100.00
18145;BME280;14857;41.200;-8.326;2022-10-17T00:21:14;99965.31;;;17.11;100.00
18145;BME280;14857;41.200;-8.326;2022-10-17T00:23:43;99970.91;;;17.08;100.00
18145;BME280;14857;41.200;-8.326;2022-10-17T00:26:13;99965.41;;;17.02;100.00
18145;BME280;14857;41.200;-8.326;2022-10-17T00:28:41;99956.53;;;16.93;100.00
18145;BME280;14857;41.200;-8.326;2022-10-17T00:31:10;99962.31;;;16.89;100.00
18145;BME280;14857;41.200;-8.326;2022-10-17T00:33:38;99956.94;;;16.98;100.00
18145;BME280;14857;41.200;-8.326;2022-10-17T00:36:11;99942.28;;;17.04;100.00
18145;BME280;14857;41.200;-8.326;2022-10-17T00:38:40;99958.81;;;17.23;100.00
18145;BME280;14857;41.200;-8.326;2022-10-17T00:41:11;99957.34;;;17.29;100.00
18145;BME280;14857;41.200;-8.326;2022-10-17T00:43:53;99947.47;;;17.31;100.00
18145;BME280;14857;41.200;-8.326;2022-10-17T00:46:24;99951.31;;;17.37;100.00
18145;BME280;14857;41.200;-8.326;2022-10-17T00:48:54;99963.28;;;17.49;100.00
18145;BME280;14857;41.200;-8.326;2022-10-17T00:51:29;99947.41;;;17.49;100.00
18145;BME280;14857;41.200;-8.326;2022-10-17T00:54:00;99954.69;;;17.47;100.00
18145;BME280;14857;41.200;-8.326;2022-10-17T00:56:30;99955.00;;;17.44;100.00
18145;BME280;14857;41.200;-8.326;2022-10-17T00:58:59;99950.34;;;17.38;100.00
18145;BME280;14857;41.200;-8.326;2022-10-17T01:01:27;99937.94;;;17.38;100.00
18145;BME280;14857;41.200;-8.326;2022-10-17T01:03:57;99953.00;;;17.46;100.00
18145;BME280;14857;41.200;-8.326;2022-10-17T01:06:27;99964.63;;;17.53;100.00
18145;BME280;14857;41.200;-8.326;2022-10-17T01:08:55;99955.00;;;17.44;100.00
18145;BME280;14857;41.200;-8.326;2022-10-17T01:11:32;99938.72;;;17.30;100.00
18145;BME280;14857;41.200;-8.326;2022-10-17T01:14:08;99945.22;;;17.18;100.00
18145;BME280;14857;41.200;-8.326;2022-10-17T01:16:43;99943.44;;;17.01;100.00
18145;BME280;14857;41.200;-8.326;2022-10-17T01:19:45;99946.44;;;17.06;100.00
18145;BME280;14857;41.200;-8.326;2022-10-17T01:22:26;99949.75;;;17.08;100.00
18145;BME280;14857;41.200;-8.326;2022-10-17T01:25:10;99936.47;;;17.00;100.00
18145;BME280;14857;41.200;-8.326;2022-10-17T01:28:00;99935.41;;;17.11;100.00
18145;BME280;14857;41.200;-8.326;2022-10-17T01:31:00;99940.03;;;17.09;100.00
18145;BME280;14857;41.200;-8.326;2022-10-17T01:33:41;99940.56;;;17.12;100.00
18145;BME280;14857;41.200;-8.326;2022-10-17T01:36:18;99944.09;;;17.21;100.00
18145;BME280;14857;41.200;-8.326;2022-10-17T01:38:57;99950.03;;;17.23;100.00
18145;BME280;14857;41.200;-8.326;2022-10-17T01:41:36;99947.91;;;17.26;100.00
18145;BME280;14857;41.200;-8.326;2022-10-17T01:44:10;99939.16;;;17.26;100.00
18145;BME280;14857;41.200;-8.326;2022-10-17T01:46:45;99934.34;;;17.21;100.00
18145;BME280;14857;41.200;-8.326;2022-10-17T01:49:18;99947.31;;;17.32;100.00
18145;BME280;14857;41.200;-8.326;2022-10-17T01:51:56;99951.16;;;17.38;100.00
18145;BME280;14857;41.200;-8.326;2022-10-17T01:54:30;99943.16;;;17.30;100.00
18145;BME280;14857;41.200;-8.326;2022-10-17T01:57:05;99942.53;;;17.36;100.00
18145;BME280;14857;41.200;-8.326;2022-10-17T01:59:37;99949.72;;;17.44;100.00
18145;BME280;14857;41.200;-8.326;2022-10-17T02:02:08;99948.00;;;17.35;100.00
18145;BME280;14857;41.200;-8.326;2022-10-17T02:04:39;99949.81;;;17.34;100.00
18145;BME280;14857;41.200;-8.326;2022-10-17T02:07:10;99965.03;;;17.40;100.00
18145;BME280;14857;41.200;-8.326;2022-10-17T02:09:39;99961.13;;;17.26;100.00
18145;BME280;14857;41.200;-8.326;2022-10-17T02:12:30;99953.47;;;17.15;100.00
18145;BME280;14857;41.200;-8.326;2022-10-17T02:15:25;99959.34;;;17.09;100.00
18145;BME280;14857;41.200;-8.326;2022-10-17T02:18:06;99961.00;;;17.10;100.00
18145;BME280;14857;41.200;-8.326;2022-10-17T02:20:45;99964.25;;;17.04;100.00
18145;BME280;14857;41.200;-8.326;2022-10-17T02:23:22;99951.34;;;17.01;100.00
18145;BME280;14857;41.200;-8.326;2022-10-17T02:26:01;99954.34;;;17.06;100.00
18145;BME280;14857;41.200;-8.326;2022-10-17T02:28:39;99951.13;;;17.12;100.00
18145;BME280;14857;41.200;-8.326;2022-10-17T02:31:14;99952.03;;;17.03;100.00
18145;BME280;14857;41.200;-8.326;2022-10-17T02:33:48;99941.75;;;17.00;100.00
18145;BME280;14857;41.200;-8.326;2022-10-17T02:36:21;99958.88;;;17.14;100.00
18145;BME280;14857;41.200;-8.326;2022-10-17T02:38:52;99952.09;;;17.11;100.00
18145;BME280;14857;41.200;-8.326;2022-10-17T02:41:22;99958.13;;;17.21;100.00
18145;BME280;14857;41.200;-8.326;2022-10-17T02:43:52;99959.41;;;17.17;100.00
18145;BME280;14857;41.200;-8.326;2022-10-17T02:46:27;99960.88;;;17.12;100.00
18145;BME280;14857;41.200;-8.326;2022-10-17T02:49:00;99953.91;;;16.93;100.00
18145;BME280;14857;41.200;-8.326;2022-10-17T02:51:34;99962.00;;;16.92;100.00
18145;BME280;14857;41.200;-8.326;2022-10-17T02:54:12;99971.38;;;16.86;100.00
18145;BME280;14857;41.200;-8.326;2022-10-17T02:56:48;99965.97;;;16.78;100.00
18145;BME280;14857;41.200;-8.326;2022-10-17T02:59:20;99970.75;;;16.92;100.00
18145;BME280;14857;41.200;-8.326;2022-10-17T03:01:50;99957.22;;;16.77;100.00
18145;BME280;14857;41.200;-8.326;2022-10-17T03:04:20;99968.84;;;16.85;100.00
18145;BME280;14857;41.200;-8.326;2022-10-17T03:06:49;99969.69;;;16.85;100.00
18145;BME280;14857;41.200;-8.326;2022-10-17T03:09:17;99974.13;;;16.85;100.00
18145;BME280;14857;41.200;-8.326;2022-10-17T03:11:46;99966.00;;;16.96;100.00
18145;BME280;14857;41.200;-8.326;2022-10-17T03:14:14;99967.81;;;16.95;100.00
18145;BME280;14857;41.200;-8.326;2022-10-17T03:16:43;99968.78;;;16.94;100.00
18145;BME280;14857;41.200;-8.326;2022-10-17T03:19:12;99972.69;;;16.90;100.00
18145;BME280;14857;41.200;-8.326;2022-10-17T03:21:42;99976.50;;;17.05;100.00
18145;BME280;14857;41.200;-8.326;2022-10-17T03:24:11;99977.09;;;16.99;100.00
18145;BME280;14857;41.200;-8.326;2022-10-17T03:26:39;99968.19;;;17.00;100.00
18145;BME280;14857;41.200;-8.326;2022-10-17T03:29:08;99969.09;;;17.09;100.00
18145;BME280;14857;41.200;-8.326;2022-10-17T03:31:37;99963.03;;;17.16;100.00
18145;BME280;14857;41.200;-8.326;2022-10-17T03:34:07;99958.75;;;17.15;100.00
18145;BME280;14857;41.200;-8.326;2022-10-17T03:36:35;99959.28;;;17.01;100.00
18145;BME280;14857;41.200;-8.326;2022-10-17T03:39:05;99956.31;;;16.87;100.00
18145;BME280;14857;41.200;-8.326;2022-10-17T03:41:34;99965.91;;;16.88;100.00
18145;BME280;14857;41.200;-8.326;2022-10-17T03:44:02;99966.88;;;16.87;100.00
18145;BME280;14857;41.200;-8.326;2022-10-17T03:46:31;99970.44;;;16.95;100.00
18145;BME280;14857;41.200;-8.326;2022-10-17T03:49:00;99978.81;;;17.08;100.00
18145;BME280;14857;41.200;-8.326;2022-10-17T03:51:29;99978.88;;;17.16;100.00
18145;BME280;14857;41.200;-8.326;2022-10-17T03:54:02;99981.91;;;17.21;100.00
18145;BME280;14857;41.200;-8.326;2022-10-17T03:56:32;99974.28;;;17.18;100.00
18145;BME280;14857;41.200;-8.326;2022-10-17T03:59:08;99990.50;;;17.23;100.00
18145;BME280;14857;41.200;-8.326;2022-10-17T04:01:41;99990.22;;;17.26;100.00
18145;BME280;14857;41.200;-8.326;2022-10-17T04:04:11;99986.28;;;17.30;100.00
18145;BME280;14857;41.200;-8.326;2022-10-17T04:06:40;99996.75;;;17.40;100.00
18145;BME280;14857;41.200;-8.326;2022-10-17T04:09:10;99998.13;;;17.44;100.00
18145;BME280;14857;41.200;-8.326;2022-10-17T04:12:03;99993.59;;;17.54;100.00
18145;BME280;14857;41.200;-8.326;2022-10-17T04:14:33;99996.75;;;17.58;100.00
18145;BME280;14857;41.200;-8.326;2022-10-17T04:17:02;100004.22;;;17.62;100.00
18145;BME280;14857;41.200;-8.326;2022-10-17T04:19:32;99991.91;;;17.53;100.00
18145;BME280;14857;41.200;-8.326;2022-10-17T04:22:01;100001.38;;;17.56;100.00
18145;BME280;14857;41.200;-8.326;2022-10-17T04:24:33;100010.81;;;17.58;100.00
18145;BME280;14857;41.200;-8.326;2022-10-17T04:27:09;99999.97;;;17.52;100.00
18145;BME280;14857;41.200;-8.326;2022-10-17T04:29:42;100001.75;;;17.43;100.00
18145;BME280;14857;41.200;-8.326;2022-10-17T04:32:20;99997.06;;;17.19;100.00
18145;BME280;14857;41.200;-8.326;2022-10-17T04:35:03;99995.03;;;17.13;100.00
18145;BME280;14857;41.200;-8.326;2022-10-17T04:37:32;100008.25;;;17.13;100.00
18145;BME280;14857;41.200;-8.326;2022-10-17T04:40:08;100006.22;;;17.07;100.00
18145;BME280;14857;41.200;-8.326;2022-10-17T04:42:38;100006.75;;;17.11;100.00
18145;BME280;14857;41.200;-8.326;2022-10-17T04:45:08;100013.84;;;17.10;100.00
18145;BME280;14857;41.200;-8.326;2022-10-17T04:47:37;100012.94;;;17.02;100.00
18145;BME280;14857;41.200;-8.326;2022-10-17T04:50:06;100018.47;;;17.08;100.00
18145;BME280;14857;41.200;-8.326;2022-10-17T04:52:35;100009.84;;;17.06;100.00
18145;BME280;14857;41.200;-8.326;2022-10-17T04:55:05;100016.78;;;17.07;100.00
18145;BME280;14857;41.200;-8.326;2022-10-17T04:57:34;100019.97;;;17.11;100.00
18145;BME280;14857;41.200;-8.326;2022-10-17T05:00:17;100012.47;;;17.06;100.00
18145;BME280;14857;41.200;-8.326;2022-10-17T05:05:57;100041.16;;;17.19;100.00
18145;BME280;14857;41.200;-8.326;2022-10-17T05:08:26;100045.25;;;17.13;100.00
18145;BME280;14857;41.200;-8.326;2022-10-17T05:10:54;100048.00;;;17.21;100.00
18145;BME280;14857;41.200;-8.326;2022-10-17T05:13:23;100054.91;;;17.22;100.00
18145;BME280;14857;41.200;-8.326;2022-10-17T05:15:53;100042.16;;;17.18;100.00
18145;BME280;14857;41.200;-8.326;2022-10-17T05:18:25;100050.41;;;17.15;100.00
18145;BME280;14857;41.200;-8.326;2022-10-17T05:20:54;100049.03;;;17.11;100.00
18145;BME280;14857;41.200;-8.326;2022-10-17T05:23:23;100047.88;;;17.13;100.00
18145;BME280;14857;41.200;-8.326;2022-10-17T05:25:55;100053.47;;;17.10;100.00
18145;BME280;14857;41.200;-8.326;2022-10-17T05:28:26;100049.16;;;17.09;100.00
18145;BME280;14857;41.200;-8.326;2022-10-17T05:31:02;100046.53;;;17.09;100.00
18145;BME280;14857;41.200;-8.326;2022-10-17T05:33:31;100051.22;;;17.15;100.00
18145;BME280;14857;41.200;-8.326;2022-10-17T05:36:00;100053.78;;;17.07;100.00
18145;BME280;14857;41.200;-8.326;2022-10-17T05:38:29;100064.34;;;17.07;100.00
18145;BME280;14857;41.200;-8.326;2022-10-17T05:40:58;100068.38;;;17.11;100.00
18145;BME280;14857;41.200;-8.326;2022-10-17T05:43:27;100051.81;;;17.09;100.00
18145;BME280;14857;41.200;-8.326;2022-10-17T05:45:56;100061.56;;;17.09;100.00
18145;BME280;14857;41.200;-8.326;2022-10-17T05:48:27;100054.84;;;17.14;100.00
18145;BME280;14857;41.200;-8.326;2022-10-17T05:50:57;100055.59;;;17.24;100.00
18145;BME280;14857;41.200;-8.326;2022-10-17T05:53:29;100056.69;;;17.31;100.00
18145;BME280;14857;41.200;-8.326;2022-10-17T05:56:03;100071.94;;;17.38;100.00
18145;BME280;14857;41.200;-8.326;2022-10-17T05:58:34;100068.66;;;17.26;100.00
18145;BME280;14857;41.200;-8.326;2022-10-17T06:01:28;100092.06;;;17.39;100.00
18145;BME280;14857;41.200;-8.326;2022-10-17T06:03:58;100077.50;;;17.35;100.00
18145;BME280;14857;41.200;-8.326;2022-10-17T06:06:26;100070.94;;;17.21;100.00
18145;BME280;14857;41.200;-8.326;2022-10-17T06:08:55;100080.38;;;17.23;100.00
18145;BME280;14857;41.200;-8.326;2022-10-17T06:11:29;100058.16;;;17.16;100.00
18145;BME280;14857;41.200;-8.326;2022-10-17T06:13:58;100075.22;;;17.04;100.00
18145;BME280;14857;41.200;-8.326;2022-10-17T06:16:28;100073.31;;;16.97;100.00
18145;BME280;14857;41.200;-8.326;2022-10-17T06:18:58;100080.56;;;16.95;100.00
18145;BME280;14857;41.200;-8.326;2022-10-17T06:21:26;100078.75;;;16.95;100.00
18145;BME280;14857;41.200;-8.326;2022-10-17T06:24:05;100085.31;;;16.91;100.00
18145;BME280;14857;41.200;-8.326;2022-10-17T06:26:36;100082.59;;;16.83;100.00
18145;BME280;14857;41.200;-8.326;2022-10-17T06:29:06;100084.09;;;16.86;100.00
18145;BME280;14857;41.200;-8.326;2022-10-17T06:31:42;100082.88;;;16.80;100.00
18145;BME280;14857;41.200;-8.326;2022-10-17T06:34:12;100082.81;;;16.90;100.00
18145;BME280;14857;41.200;-8.326;2022-10-17T06:36:41;100091.75;;;17.06;100.00
18145;BME280;14857;41.200;-8.326;2022-10-17T06:39:10;100091.16;;;17.12;100.00
18145;BME280;14857;41.200;-8.326;2022-10-17T06:41:48;100084.88;;;17.13;100.00
18145;BME280;14857;41.200;-8.326;2022-10-17T06:44:18;100100.91;;;17.29;100.00
18145;BME280;14857;41.200;-8.326;2022-10-17T06:46:55;100099.53;;;17.25;100.00
18145;BME280;14857;41.200;-8.326;2022-10-17T06:49:25;100098.97;;;17.31;100.00
18145;BME280;14857;41.200;-8.326;2022-10-17T06:52:33;100095.63;;;17.29;100.00
18145;BME280;14857;41.200;-8.326;2022-10-17T06:55:40;100115.56;;;17.42;100.00
18145;BME280;14857;41.200;-8.326;2022-10-17T06:58:22;100100.00;;;17.39;100.00
18145;BME280;14857;41.200;-8.326;2022-10-17T07:01:23;100102.53;;;17.58;100.00
18145;BME280;14857;41.200;-8.326;2022-10-17T07:03:56;100107.38;;;17.62;100.00
18145;BME280;14857;41.200;-8.326;2022-10-17T07:06:26;100108.50;;;17.60;100.00
18145;BME280;14857;41.200;-8.326;2022-10-17T07:08:57;100111.16;;;17.60;100.00
18145;BME280;14857;41.200;-8.326;2022-10-17T07:11:28;100107.81;;;17.58;100.00
18145;BME280;14857;41.200;-8.326;2022-10-17T07:13:57;100118.56;;;17.56;100.00
18145;BME280;14857;41.200;-8.326;2022-10-17T07:16:26;100122.03;;;17.57;100.00
18145;BME280;14857;41.200;-8.326;2022-10-17T07:19:02;100121.31;;;17.55;100.00
18145;BME280;14857;41.200;-8.326;2022-10-17T07:21:36;100136.00;;;17.67;100.00
18145;BME280;14857;41.200;-8.326;2022-10-17T07:24:07;100131.97;;;17.80;100.00
18145;BME280;14857;41.200;-8.326;2022-10-17T07:26:37;100128.59;;;17.88;100.00
18145;BME280;14857;41.200;-8.326;2022-10-17T07:29:05;100133.03;;;17.88;100.00
18145;BME280;14857;41.200;-8.326;2022-10-17T07:31:38;100128.84;;;17.77;100.00
18145;BME280;14857;41.200;-8.326;2022-10-17T07:34:07;100132.59;;;17.74;100.00
18145;BME280;14857;41.200;-8.326;2022-10-17T07:36:37;100144.75;;;17.85;100.00
18145;BME280;14857;41.200;-8.326;2022-10-17T07:39:07;100148.81;;;17.97;100.00
18145;BME280;14857;41.200;-8.326;2022-10-17T07:41:37;100137.03;;;18.09;100.00
18145;BME280;14857;41.200;-8.326;2022-10-17T07:44:05;100144.97;;;18.09;100.00
18145;BME280;14857;41.200;-8.326;2022-10-17T07:46:40;100153.72;;;18.10;100.00
18145;BME280;14857;41.200;-8.326;2022-10-17T07:49:12;100148.56;;;18.52;100.00
18145;BME280;14857;41.200;-8.326;2022-10-17T07:51:42;100155.22;;;18.56;100.00
18145;BME280;14857;41.200;-8.326;2022-10-17T07:54:10;100147.75;;;18.51;100.00
18145;BME280;14857;41.200;-8.326;2022-10-17T07:56:40;100150.09;;;18.88;100.00
18145;BME280;14857;41.200;-8.326;2022-10-17T07:59:08;100147.69;;;19.03;100.00
18145;BME280;14857;41.200;-8.326;2022-10-17T08:01:37;100146.34;;;19.57;100.00
18145;BME280;14857;41.200;-8.326;2022-10-17T08:04:05;100145.06;;;19.93;100.00
18145;BME280;14857;41.200;-8.326;2022-10-17T08:06:33;100128.53;;;20.62;100.00
18145;BME280;14857;41.200;-8.326;2022-10-17T08:09:04;100110.56;;;21.19;100.00
18145;BME280;14857;41.200;-8.326;2022-10-17T08:11:32;100116.06;;;21.63;100.00
18145;BME280;14857;41.200;-8.326;2022-10-17T08:14:02;100100.50;;;21.29;100.00
18145;BME280;14857;41.200;-8.326;2022-10-17T08:16:31;100114.47;;;21.31;100.00
18145;BME280;14857;41.200;-8.326;2022-10-17T08:18:59;100114.13;;;21.57;100.00
18145;BME280;14857;41.200;-8.326;2022-10-17T08:21:28;100117.50;;;21.74;100.00
18145;BME280;14857;41.200;-8.326;2022-10-17T08:23:57;100118.44;;;21.81;100.00
18145;BME280;14857;41.200;-8.326;2022-10-17T08:26:27;100113.13;;;22.33;100.00
18145;BME280;14857;41.200;-8.326;2022-10-17T08:28:56;100108.59;;;22.71;100.00
18145;BME280;14857;41.200;-8.326;2022-10-17T08:31:25;100098.28;;;22.97;100.00
18145;BME280;14857;41.200;-8.326;2022-10-17T08:33:54;100113.16;;;23.06;100.00
18145;BME280;14857;41.200;-8.326;2022-10-17T08:36:23;100110.34;;;23.14;100.00
18145;BME280;14857;41.200;-8.326;2022-10-17T08:38:51;100116.44;;;23.23;100.00
18145;BME280;14857;41.200;-8.326;2022-10-17T08:41:33;100111.47;;;23.20;100.00
18145;BME280;14857;41.200;-8.326;2022-10-17T08:44:12;100116.03;;;23.40;100.00
18145;BME280;14857;41.200;-8.326;2022-10-17T08:46:45;100124.91;;;23.69;100.00
18145;BME280;14857;41.200;-8.326;2022-10-17T08:49:19;100122.38;;;24.03;100.00
18145;BME280;14857;41.200;-8.326;2022-10-17T08:51:51;100127.00;;;24.16;100.00
18145;BME280;14857;41.200;-8.326;2022-10-17T08:54:26;100122.38;;;24.03;100.00
18145;BME280;14857;41.200;-8.326;2022-10-17T08:57:00;100109.56;;;23.98;100.00
18145;BME280;14857;41.200;-8.326;2022-10-17T08:59:29;100122.81;;;24.07;100.00
18145;BME280;14857;41.200;-8.326;2022-10-17T09:02:02;100115.88;;;24.12;100.00
18145;BME280;14857;41.200;-8.326;2022-10-17T09:04:49;100116.41;;;24.08;100.00
18145;BME280;14857;41.200;-8.326;2022-10-17T09:07:28;100116.34;;;23.73;100.00
18145;BME280;14857;41.200;-8.326;2022-10-17T09:10:07;100123.03;;;23.63;100.00
18145;BME280;14857;41.200;-8.326;2022-10-17T09:12:42;100113.84;;;23.29;100.00
18145;BME280;14857;41.200;-8.326;2022-10-17T09:15:34;100121.22;;;24.12;100.00
18145;BME280;14857;41.200;-8.326;2022-10-17T09:18:09;100121.63;;;23.67;100.00
18145;BME280;14857;41.200;-8.326;2022-10-17T09:20:43;100132.22;;;23.24;100.00
18145;BME280;14857;41.200;-8.326;2022-10-17T09:23:15;100128.19;;;22.78;100.00
18145;BME280;14857;41.200;-8.326;2022-10-17T09:25:47;100126.66;;;23.05;100.00
18145;BME280;14857;41.200;-8.326;2022-10-17T09:28:22;100131.94;;;23.48;100.00
18145;BME280;14857;41.200;-8.326;2022-10-17T09:30:55;100119.44;;;24.19;100.00
18145;BME280;14857;41.200;-8.326;2022-10-17T09:33:29;100138.31;;;23.18;100.00
18145;BME280;14857;41.200;-8.326;2022-10-17T09:36:20;100144.91;;;22.72;100.00
18145;BME280;14857;41.200;-8.326;2022-10-17T09:38:52;100153.22;;;22.39;100.00
18145;BME280;14857;41.200;-8.326;2022-10-17T09:41:29;100160.84;;;22.28;100.00
18145;BME280;14857;41.200;-8.326;2022-10-17T09:44:18;100154.34;;;22.08;100.00
18145;BME280;14857;41.200;-8.326;2022-10-17T09:47:18;100148.28;;;21.68;100.00
18145;BME280;14857;41.200;-8.326;2022-10-17T09:49:50;100159.06;;;21.75;100.00
18145;BME280;14857;41.200;-8.326;2022-10-17T09:52:21;100176.34;;;21.79;100.00
18145;BME280;14857;41.200;-8.326;2022-10-17T09:54:55;100169.13;;;21.87;100.00
18145;BME280;14857;41.200;-8.326;2022-10-17T09:57:25;100169.22;;;22.02;100.00
18145;BME280;14857;41.200;-8.326;2022-10-17T09:59:59;100168.22;;;22.03;100.00
18145;BME280;14857;41.200;-8.326;2022-10-17T10:02:29;100179.66;;;22.26;100.00
18145;BME280;14857;41.200;-8.326;2022-10-17T10:05:01;100179.22;;;22.52;100.00
18145;BME280;14857;41.200;-8.326;2022-10-17T10:07:35;100178.13;;;22.84;100.00
18145;BME280;14857;41.200;-8.326;2022-10-17T10:10:06;100175.25;;;23.00;100.00
18145;BME280;14857;41.200;-8.326;2022-10-17T10:13:01;100168.25;;;22.99;100.00
18145;BME280;14857;41.200;-8.326;2022-10-17T10:15:33;100181.84;;;23.04;100.00
18145;BME280;14857;41.200;-8.326;2022-10-17T10:18:27;100171.38;;;22.73;100.00
18145;BME280;14857;41.200;-8.326;2022-10-17T10:21:07;100169.81;;;22.79;100.00
18145;BME280;14857;41.200;-8.326;2022-10-17T10:23:37;100176.53;;;22.75;100.00
18145;BME280;14857;41.200;-8.326;2022-10-17T10:26:21;100166.16;;;23.30;100.00
18145;BME280;14857;41.200;-8.326;2022-10-17T10:28:54;100169.94;;;24.35;100.00
18145;BME280;14857;41.200;-8.326;2022-10-17T10:31:34;100162.41;;;24.80;100.00
18145;BME280;14857;41.200;-8.326;2022-10-17T10:34:14;100154.75;;;25.11;100.00
18145;BME280;14857;41.200;-8.326;2022-10-17T10:36:45;100175.78;;;25.14;100.00
18145;BME280;14857;41.200;-8.326;2022-10-17T10:39:34;100172.31;;;25.81;100.00
18145;BME280;14857;41.200;-8.326;2022-10-17T10:42:06;100169.69;;;24.92;100.00
18145;BME280;14857;41.200;-8.326;2022-10-17T10:44:37;100171.47;;;25.80;100.00
18145;BME280;14857;41.200;-8.326;2022-10-17T10:47:21;100178.25;;;24.47;100.00
18145;BME280;14857;41.200;-8.326;2022-10-17T10:49:52;100181.13;;;24.45;100.00
18145;BME280;14857;41.200;-8.326;2022-10-17T10:52:39;100183.03;;;25.94;100.00
18145;BME280;14857;41.200;-8.326;2022-10-17T10:55:22;100186.50;;;26.99;100.00
18145;BME280;14857;41.200;-8.326;2022-10-17T10:57:55;100173.84;;;25.42;100.00
18145;BME280;14857;41.200;-8.326;2022-10-17T11:00:27;100170.47;;;25.27;100.00
18145;BME280;14857;41.200;-8.326;2022-10-17T11:03:05;100180.53;;;25.73;100.00
18145;BME280;14857;41.200;-8.326;2022-10-17T11:05:43;100180.91;;;24.47;100.00
18145;BME280;14857;41.200;-8.326;2022-10-17T11:08:20;100186.88;;;24.42;100.00
18145;BME280;14857;41.200;-8.326;2022-10-17T11:11:08;100193.34;;;23.70;100.00
18145;BME280;14857;41.200;-8.326;2022-10-17T11:13:47;100186.91;;;23.28;100.00
18145;BME280;14857;41.200;-8.326;2022-10-17T11:16:27;100192.84;;;23.30;100.00
18145;BME280;14857;41.200;-8.326;2022-10-17T11:19:06;100201.97;;;23.50;100.00
18145;BME280;14857;41.200;-8.326;2022-10-17T11:21:45;100202.72;;;24.01;100.00
18145;BME280;14857;41.200;-8.326;2022-10-17T11:24:20;100207.28;;;24.08;100.00
18145;BME280;14857;41.200;-8.326;2022-10-17T11:26:54;100205.41;;;24.50;100.00
18145;BME280;14857;41.200;-8.326;2022-10-17T11:29:29;100203.94;;;24.76;100.00
18145;BME280;14857;41.200;-8.326;2022-10-17T11:32:02;100193.03;;;25.05;100.00
18145;BME280;14857;41.200;-8.326;2022-10-17T11:34:38;100182.53;;;24.76;100.00
18145;BME280;14857;41.200;-8.326;2022-10-17T11:37:13;100186.66;;;25.06;100.00
18145;BME280;14857;41.200;-8.326;2022-10-17T11:39:45;100192.03;;;25.53;100.00
18145;BME280;14857;41.200;-8.326;2022-10-17T11:42:20;100190.66;;;25.23;100.00
18145;BME280;14857;41.200;-8.326;2022-10-17T11:44:54;100192.97;;;26.06;100.00
18145;BME280;14857;41.200;-8.326;2022-10-17T11:47:33;100189.56;;;25.58;100.00
18145;BME280;14857;41.200;-8.326;2022-10-17T11:50:15;100187.97;;;25.84;100.00
18145;BME280;14857;41.200;-8.326;2022-10-17T11:53:10;100185.72;;;26.73;100.00
18145;BME280;14857;41.200;-8.326;2022-10-17T11:55:41;100194.84;;;26.45;100.00
18145;BME280;14857;41.200;-8.326;2022-10-17T11:58:33;100183.63;;;25.16;100.00
18145;BME280;14857;41.200;-8.326;2022-10-17T12:01:11;100189.00;;;25.22;100.00
18145;BME280;14857;41.200;-8.326;2022-10-17T12:03:50;100199.56;;;26.50;100.00
18145;BME280;14857;41.200;-8.326;2022-10-17T12:06:38;100185.13;;;26.44;100.00
18145;BME280;14857;41.200;-8.326;2022-10-17T12:09:19;100201.59;;;26.02;100.00
18145;BME280;14857;41.200;-8.326;2022-10-17T12:11:53;100200.53;;;25.77;100.00
18145;BME280;14857;41.200;-8.326;2022-10-17T12:14:38;100204.94;;;26.10;100.00
18145;BME280;14857;41.200;-8.326;2022-10-17T12:17:24;100197.25;;;25.81;100.00
18145;BME280;14857;41.200;-8.326;2022-10-17T12:20:23;100192.75;;;24.66;100.00
18145;BME280;14857;41.200;-8.326;2022-10-17T12:22:56;100190.16;;;24.44;100.00
18145;BME280;14857;41.200;-8.326;2022-10-17T12:25:27;100205.59;;;24.00;100.00
18145;BME280;14857;41.200;-8.326;2022-10-17T12:28:09;100196.47;;;23.73;100.00
18145;BME280;14857;41.200;-8.326;2022-10-17T12:30:51;100199.63;;;24.19;100.00
18145;BME280;14857;41.200;-8.326;2022-10-17T12:33:36;100190.06;;;23.89;100.00
18145;BME280;14857;41.200;-8.326;2022-10-17T12:42:49;100199.63;;;24.75;100.00
18145;BME280;14857;41.200;-8.326;2022-10-17T12:45:46;100196.34;;;24.24;100.00
18145;BME280;14857;41.200;-8.326;2022-10-17T12:51:22;100193.22;;;24.20;100.00
18145;BME280;14857;41.200;-8.326;2022-10-17T12:54:10;100195.56;;;24.23;100.00
18145;BME280;14857;41.200;-8.326;2022-10-17T12:56:41;100188.88;;;24.40;100.00
18145;BME280;14857;41.200;-8.326;2022-10-17T12:59:15;100188.41;;;24.86;100.00
18145;BME280;14857;41.200;-8.326;2022-10-17T13:01:47;100181.09;;;25.07;100.00
18145;BME280;14857;41.200;-8.326;2022-10-17T13:04:16;100185.69;;;25.27;100.00
18145;BME280;14857;41.200;-8.326;2022-10-17T13:06:47;100188.38;;;25.20;100.00
18145;BME280;14857;41.200;-8.326;2022-10-17T13:09:21;100186.88;;;25.11;100.00
18145;BME280;14857;41.200;-8.326;2022-10-17T13:11:52;100189.41;;;25.19;100.00
18145;BME280;14857;41.200;-8.326;2022-10-17T13:14:23;100167.94;;;25.06;100.00
18145;BME280;14857;41.200;-8.326;2022-10-17T13:16:54;100175.00;;;25.27;100.00
18145;BME280;14857;41.200;-8.326;2022-10-17T13:19:25;100161.63;;;24.86;100.00
18145;BME280;14857;41.200;-8.326;2022-10-17T13:21:57;100180.13;;;25.22;100.00